CGMLX CYXU-CYYZ
Flight info
| Callsign | CGMLX |
|---|---|
| Flight time | 0h 25m |
| Altitude | 19000 |
| Route | APDAX NUBER6 |
| Aircraft | GLF6/M-SFGHIRWXY/S |
Departure
| Time | 2026-05-08 00:43 |
|---|---|
| Airport | London International Airport (CYXU) |
Arrival
| Time | 2026-05-08 01:09 |
|---|---|
| Airport | Toronto Pearson International Airport (CYYZ) |
| Time | Latitude | Longitude | Altitude | Speed | Heading |
|---|---|---|---|---|---|
| 2026-05-08 00:17 | 43.02800 | -81.14738 | 907 ft | 0 kts | 257° |
| 2026-05-08 00:33 | 43.02800 | -81.14739 | 907 ft | 0 kts | 257° |
| 2026-05-08 00:36 | 43.02804 | -81.14722 | 907 ft | 2 kts | 240° |
| 2026-05-08 00:36 | 43.02813 | -81.14706 | 908 ft | 2 kts | 224° |
| 2026-05-08 00:36 | 43.02824 | -81.14693 | 908 ft | 2 kts | 208° |
| 2026-05-08 00:36 | 43.02839 | -81.14686 | 908 ft | 2 kts | 191° |
| 2026-05-08 00:37 | 43.02853 | -81.14684 | 908 ft | 2 kts | 174° |
| 2026-05-08 00:37 | 43.02868 | -81.14688 | 908 ft | 2 kts | 158° |
| 2026-05-08 00:37 | 43.02881 | -81.14698 | 908 ft | 2 kts | 142° |
| 2026-05-08 00:38 | 43.02885 | -81.14702 | 908 ft | 0 kts | 139° |
| 2026-05-08 00:40 | 43.02876 | -81.14692 | 908 ft | 7 kts | 140° |
| 2026-05-08 00:40 | 43.02787 | -81.14587 | 908 ft | 23 kts | 139° |
| 2026-05-08 00:41 | 43.02645 | -81.14419 | 910 ft | 30 kts | 139° |
| 2026-05-08 00:41 | 43.02470 | -81.14208 | 912 ft | 36 kts | 139° |
| 2026-05-08 00:41 | 43.02321 | -81.14017 | 914 ft | 18 kts | 112° |
| 2026-05-08 00:41 | 43.02338 | -81.13932 | 915 ft | 0 kts | 42° |
| 2026-05-08 00:42 | 43.02340 | -81.13930 | 915 ft | 2 kts | 42° |
| 2026-05-08 00:42 | 43.02369 | -81.13888 | 915 ft | 10 kts | 47° |
| 2026-05-08 00:42 | 43.02449 | -81.13866 | 915 ft | 18 kts | 315° |
| 2026-05-08 00:43 | 43.02631 | -81.14085 | 912 ft | 74 kts | 319° |
| 2026-05-08 00:43 | 43.03281 | -81.14861 | 1162 ft | 156 kts | 318° |
| 2026-05-08 00:43 | 43.03997 | -81.15636 | 2551 ft | 142 kts | 319° |
| 2026-05-08 00:43 | 43.04985 | -81.16684 | 2528 ft | 205 kts | 321° |
| 2026-05-08 00:44 | 43.06104 | -81.17928 | 2261 ft | 206 kts | 318° |
| 2026-05-08 00:44 | 43.07220 | -81.19164 | 2000 ft | 206 kts | 320° |
| 2026-05-08 00:44 | 43.08616 | -81.19856 | 2437 ft | 250 kts | 5° |
| 2026-05-08 00:44 | 43.09899 | -81.18761 | 4896 ft | 233 kts | 43° |
| 2026-05-08 00:45 | 43.10733 | -81.16608 | 5564 ft | 291 kts | 74° |
| 2026-05-08 00:45 | 43.11048 | -81.13858 | 7178 ft | 299 kts | 79° |
| 2026-05-08 00:45 | 43.11409 | -81.11131 | 8812 ft | 301 kts | 68° |
| 2026-05-08 00:45 | 43.12339 | -81.08586 | 10299 ft | 306 kts | 55° |
| 2026-05-08 00:46 | 43.13501 | -81.05939 | 10790 ft | 350 kts | 54° |
| 2026-05-08 00:46 | 43.14874 | -81.02962 | 10803 ft | 374 kts | 53° |
| 2026-05-08 00:46 | 43.16275 | -80.99981 | 10780 ft | 368 kts | 53° |
| 2026-05-08 00:46 | 43.17661 | -80.97063 | 10776 ft | 364 kts | 53° |
| 2026-05-08 00:47 | 43.19099 | -80.94058 | 11076 ft | 380 kts | 53° |
| 2026-05-08 00:47 | 43.20501 | -80.91114 | 10943 ft | 363 kts | 53° |
| 2026-05-08 00:47 | 43.21874 | -80.88238 | 10976 ft | 361 kts | 53° |
| 2026-05-08 00:47 | 43.23271 | -80.85315 | 10964 ft | 363 kts | 53° |
| 2026-05-08 00:48 | 43.24652 | -80.82416 | 10968 ft | 363 kts | 53° |
| 2026-05-08 00:48 | 43.26036 | -80.79513 | 10971 ft | 364 kts | 53° |
| 2026-05-08 00:48 | 43.27411 | -80.76626 | 10966 ft | 364 kts | 53° |
| 2026-05-08 00:48 | 43.28809 | -80.73687 | 10965 ft | 363 kts | 53° |
| 2026-05-08 00:49 | 43.30194 | -80.70770 | 10965 ft | 364 kts | 53° |
| 2026-05-08 00:49 | 43.31563 | -80.67883 | 10964 ft | 364 kts | 53° |
| 2026-05-08 00:49 | 43.32958 | -80.64943 | 10967 ft | 364 kts | 53° |
| 2026-05-08 00:49 | 43.34340 | -80.62026 | 10977 ft | 364 kts | 53° |
| 2026-05-08 00:50 | 43.35724 | -80.59101 | 10977 ft | 364 kts | 53° |
| 2026-05-08 00:50 | 43.37098 | -80.56194 | 10975 ft | 364 kts | 53° |
| 2026-05-08 00:50 | 43.38491 | -80.53243 | 10982 ft | 364 kts | 53° |
| 2026-05-08 00:50 | 43.39869 | -80.50324 | 10974 ft | 365 kts | 53° |
| 2026-05-08 00:51 | 43.41244 | -80.47404 | 10982 ft | 364 kts | 54° |
| 2026-05-08 00:51 | 43.42633 | -80.44454 | 10974 ft | 365 kts | 54° |
| 2026-05-08 00:51 | 43.44006 | -80.41536 | 10985 ft | 364 kts | 54° |
| 2026-05-08 00:51 | 43.45388 | -80.38585 | 10984 ft | 364 kts | 55° |
| 2026-05-08 00:52 | 43.46444 | -80.35422 | 10992 ft | 367 kts | 66° |
| 2026-05-08 00:52 | 43.47368 | -80.32098 | 10993 ft | 369 kts | 67° |
| 2026-05-08 00:52 | 43.48280 | -80.28818 | 10983 ft | 368 kts | 67° |
| 2026-05-08 00:52 | 43.49205 | -80.25494 | 10984 ft | 380 kts | 67° |
| 2026-05-08 00:53 | 43.50180 | -80.21993 | 10980 ft | 378 kts | 68° |
| 2026-05-08 00:53 | 43.51095 | -80.18702 | 10996 ft | 369 kts | 67° |
| 2026-05-08 00:53 | 43.52020 | -80.15431 | 10500 ft | 358 kts | 67° |
| 2026-05-08 00:53 | 43.52858 | -80.12297 | 10187 ft | 344 kts | 69° |
| 2026-05-08 00:54 | 43.53639 | -80.09256 | 10176 ft | 323 kts | 69° |
| 2026-05-08 00:54 | 43.54376 | -80.06436 | 10114 ft | 306 kts | 68° |
| 2026-05-08 00:54 | 43.55106 | -80.03677 | 9671 ft | 305 kts | 68° |
| 2026-05-08 00:54 | 43.55829 | -80.00952 | 9259 ft | 302 kts | 68° |
| 2026-05-08 00:55 | 43.56549 | -79.98238 | 8855 ft | 300 kts | 68° |
| 2026-05-08 00:55 | 43.57260 | -79.95558 | 8449 ft | 298 kts | 68° |
| 2026-05-08 00:55 | 43.57970 | -79.92881 | 8055 ft | 297 kts | 68° |
| 2026-05-08 00:55 | 43.58681 | -79.90200 | 7987 ft | 295 kts | 68° |
| 2026-05-08 00:56 | 43.59512 | -79.87643 | 7974 ft | 292 kts | 51° |
| 2026-05-08 00:56 | 43.60957 | -79.85834 | 7993 ft | 271 kts | 32° |
| 2026-05-08 00:56 | 43.62460 | -79.84356 | 7977 ft | 256 kts | 31° |
| 2026-05-08 00:56 | 43.63902 | -79.82949 | 7980 ft | 253 kts | 31° |
| 2026-05-08 00:57 | 43.65352 | -79.81538 | 7984 ft | 253 kts | 31° |
| 2026-05-08 00:57 | 43.66787 | -79.80141 | 7984 ft | 253 kts | 31° |
| 2026-05-08 00:57 | 43.68234 | -79.78734 | 7987 ft | 254 kts | 31° |
| 2026-05-08 00:57 | 43.69684 | -79.77321 | 7986 ft | 253 kts | 31° |
| 2026-05-08 00:58 | 43.71121 | -79.75919 | 7941 ft | 248 kts | 31° |
| 2026-05-08 00:58 | 43.72541 | -79.74537 | 7526 ft | 252 kts | 31° |
| 2026-05-08 00:58 | 43.74009 | -79.73111 | 6523 ft | 279 kts | 32° |
| 2026-05-08 00:58 | 43.75526 | -79.71350 | 6065 ft | 279 kts | 43° |
| 2026-05-08 00:59 | 43.76819 | -79.69466 | 6062 ft | 262 kts | 43° |
| 2026-05-08 00:59 | 43.78045 | -79.67679 | 6044 ft | 248 kts | 43° |
| 2026-05-08 00:59 | 43.79214 | -79.65977 | 5834 ft | 244 kts | 43° |
| 2026-05-08 00:59 | 43.80393 | -79.64264 | 5520 ft | 244 kts | 43° |
| 2026-05-08 01:00 | 43.81551 | -79.62578 | 5278 ft | 242 kts | 43° |
| 2026-05-08 01:00 | 43.82707 | -79.60895 | 5026 ft | 240 kts | 43° |
| 2026-05-08 01:00 | 43.83891 | -79.59174 | 4162 ft | 264 kts | 43° |
| 2026-05-08 01:00 | 43.85151 | -79.57336 | 3982 ft | 260 kts | 43° |
| 2026-05-08 01:01 | 43.86399 | -79.55513 | 3983 ft | 261 kts | 43° |
| 2026-05-08 01:01 | 43.87659 | -79.53673 | 3982 ft | 262 kts | 43° |
| 2026-05-08 01:01 | 43.88914 | -79.51836 | 3982 ft | 263 kts | 43° |
| 2026-05-08 01:01 | 43.90149 | -79.49945 | 3970 ft | 265 kts | 52° |
| 2026-05-08 01:02 | 43.90689 | -79.47527 | 3978 ft | 272 kts | 88° |
| 2026-05-08 01:02 | 43.90121 | -79.45021 | 3979 ft | 273 kts | 124° |
| 2026-05-08 01:02 | 43.88659 | -79.43441 | 4012 ft | 262 kts | 160° |
| 2026-05-08 01:02 | 43.86962 | -79.43301 | 3952 ft | 236 kts | 195° |
| 2026-05-08 01:03 | 43.85509 | -79.43874 | 3910 ft | 195 kts | 199° |
| 2026-05-08 01:03 | 43.84261 | -79.44378 | 3970 ft | 181 kts | 199° |
| 2026-05-08 01:03 | 43.83063 | -79.44854 | 3949 ft | 173 kts | 199° |
| 2026-05-08 01:03 | 43.81910 | -79.45347 | 3352 ft | 180 kts | 210° |
| 2026-05-08 01:04 | 43.81025 | -79.46469 | 3017 ft | 164 kts | 233° |
| 2026-05-08 01:04 | 43.80269 | -79.47638 | 2985 ft | 162 kts | 231° |
| 2026-05-08 01:04 | 43.79507 | -79.48789 | 2991 ft | 164 kts | 230° |
| 2026-05-08 01:04 | 43.78732 | -79.49937 | 3025 ft | 158 kts | 230° |
| 2026-05-08 01:05 | 43.78032 | -79.50960 | 3004 ft | 133 kts | 231° |
| 2026-05-08 01:05 | 43.77380 | -79.51922 | 2864 ft | 157 kts | 231° |
| 2026-05-08 01:05 | 43.76600 | -79.53067 | 2700 ft | 167 kts | 230° |
| 2026-05-08 01:05 | 43.75799 | -79.54230 | 2459 ft | 165 kts | 230° |
| 2026-05-08 01:06 | 43.75010 | -79.55379 | 2225 ft | 162 kts | 230° |
| 2026-05-08 01:06 | 43.74240 | -79.56499 | 1997 ft | 161 kts | 230° |
| 2026-05-08 01:06 | 43.73470 | -79.57618 | 1774 ft | 160 kts | 230° |
| 2026-05-08 01:06 | 43.72709 | -79.58725 | 1566 ft | 149 kts | 229° |
| 2026-05-08 01:07 | 43.72052 | -79.59676 | 1350 ft | 125 kts | 229° |
| 2026-05-08 01:07 | 43.71480 | -79.60508 | 1183 ft | 117 kts | 229° |
| 2026-05-08 01:07 | 43.70919 | -79.61326 | 1034 ft | 118 kts | 229° |
| 2026-05-08 01:07 | 43.70345 | -79.62158 | 874 ft | 119 kts | 228° |
| 2026-05-08 01:08 | 43.69780 | -79.62980 | 689 ft | 118 kts | 227° |
| 2026-05-08 01:08 | 43.69212 | -79.63797 | 573 ft | 117 kts | 226° |
| 2026-05-08 01:08 | 43.68678 | -79.64561 | 545 ft | 100 kts | 226° |
| 2026-05-08 01:08 | 43.68264 | -79.65171 | 548 ft | 75 kts | 226° |
| 2026-05-08 01:09 | 43.67961 | -79.65617 | 559 ft | 44 kts | 231° |
| 2026-05-08 01:09 | 43.67880 | -79.65889 | 563 ft | 12 kts | 258° |
| 2026-05-08 01:09 | 43.67878 | -79.65904 | 563 ft | 0 kts | 258° |
| 2026-05-08 01:09 | 43.67877 | -79.65909 | 563 ft | 0 kts | 258° |
| 2026-05-08 01:10 | 43.67876 | -79.65912 | 563 ft | 1 kts | 258° |
| 2026-05-08 01:10 | 43.67876 | -79.65943 | 564 ft | 6 kts | 284° |
| 2026-05-08 01:10 | 43.67947 | -79.65962 | 563 ft | 18 kts | 37° |
| 2026-05-08 01:10 | 43.68073 | -79.65784 | 561 ft | 30 kts | 46° |
| 2026-05-08 01:11 | 43.68215 | -79.65577 | 556 ft | 29 kts | 45° |
| 2026-05-08 01:11 | 43.68354 | -79.65372 | 552 ft | 29 kts | 45° |
| 2026-05-08 01:11 | 43.68526 | -79.65257 | 551 ft | 26 kts | 10° |
| 2026-05-08 01:11 | 43.68677 | -79.65147 | 551 ft | 24 kts | 44° |
| 2026-05-08 01:12 | 43.68779 | -79.65028 | 551 ft | 13 kts | 38° |
| 2026-05-08 01:12 | 43.68823 | -79.64978 | 551 ft | 10 kts | 40° |
| 2026-05-08 01:12 | 43.68985 | -79.64815 | 552 ft | 27 kts | 301° |
| 2026-05-08 01:12 | 43.69110 | -79.64999 | 556 ft | 24 kts | 320° |
| 2026-05-08 01:13 | 43.69224 | -79.65147 | 558 ft | 20 kts | 303° |
| 2026-05-08 01:13 | 43.69279 | -79.65127 | 559 ft | 10 kts | 86° |
| 2026-05-08 01:13 | 43.69244 | -79.65044 | 558 ft | 10 kts | 134° |
| 2026-05-08 01:13 | 43.69241 | -79.65040 | 557 ft | 0 kts | 134° |